Time;durP1;ratioP1;P1;durP2;ratioP2;P2;SDS_P1;SDS_P2;PMS_P1;PMS_P2;Temp;Humidity;BMP_temperature;BMP_pressure;BME280_temperature;BME280_humidity;BME280_pressure;Samples;Min_cycle;Max_cycle;Signal;HPM_P1;HPM_P2
2021/01/23 00:02:15;;;;;;;17.55;3.55;;;13.70;99.90;;;;;;4731790;30;20112;-82
2021/01/23 00:04:41;;;;;;;14.00;3.30;;;13.70;99.90;;;;;;4733094;30;20071;-82
2021/01/23 00:07:08;;;;;;;15.80;3.45;;;13.70;99.90;;;;;;4722902;30;20045;-79
2021/01/23 00:09:34;;;;;;;17.67;3.60;;;13.70;99.90;;;;;;4725568;30;20041;-81
2021/01/23 00:12:01;;;;;;;15.43;3.28;;;13.70;99.90;;;;;;4714190;30;20043;-82
2021/01/23 00:14:27;;;;;;;18.55;3.20;;;13.70;99.90;;;;;;4715297;30;20499;-82
2021/01/23 00:16:53;;;;;;;14.65;3.67;;;13.70;99.90;;;;;;4731229;30;20029;-82
2021/01/23 00:19:19;;;;;;;17.77;4.32;;;13.70;99.90;;;;;;4733003;30;20032;-81
2021/01/23 00:21:47;;;;;;;13.93;4.28;;;13.70;99.90;;;;;;4732325;30;20077;-81
2021/01/23 00:24:13;;;;;;;14.18;3.92;;;13.60;99.90;;;;;;4730944;30;20060;-81
2021/01/23 00:26:43;;;;;;;14.60;2.85;;;13.60;99.90;;;;;;4730922;30;20037;-82
2021/01/23 00:29:14;;;;;;;13.60;2.83;;;13.60;99.90;;;;;;4741298;30;20047;-81
2021/01/23 00:31:41;;;;;;;11.95;2.88;;;13.70;99.90;;;;;;4724235;30;20037;-81
2021/01/23 00:34:08;;;;;;;12.93;2.65;;;13.60;99.90;;;;;;4732294;30;20174;-82
2021/01/23 00:36:34;;;;;;;16.00;4.00;;;13.60;99.90;;;;;;4732193;30;20056;-81
2021/01/23 00:39:00;;;;;;;11.55;2.85;;;13.60;99.90;;;;;;4737985;30;20396;-81
2021/01/23 00:41:26;;;;;;;14.15;3.05;;;13.60;99.90;;;;;;4736741;30;20073;-82
2021/01/23 00:43:55;;;;;;;14.95;3.35;;;13.60;99.90;;;;;;4714741;30;20021;-82
2021/01/23 00:46:22;;;;;;;23.52;5.65;;;13.60;99.90;;;;;;4714072;30;20037;-82
2021/01/23 00:48:48;;;;;;;12.60;3.05;;;13.60;99.90;;;;;;4734134;30;20123;-82
2021/01/23 00:51:15;;;;;;;18.77;4.32;;;13.60;99.90;;;;;;4714755;30;20036;-81
2021/01/23 00:53:41;;;;;;;14.65;3.30;;;13.60;99.90;;;;;;4714605;30;20041;-81
2021/01/23 00:56:08;;;;;;;10.43;2.47;;;13.60;99.90;;;;;;4713843;30;20099;-81
2021/01/23 00:58:34;;;;;;;8.68;3.00;;;13.60;99.90;;;;;;4727298;30;20100;-82
2021/01/23 01:01:00;;;;;;;13.65;2.97;;;13.60;99.90;;;;;;4734292;30;20036;-82
2021/01/23 01:03:26;;;;;;;18.80;2.92;;;13.60;99.90;;;;;;4733404;30;20039;-82
2021/01/23 01:06:01;;;;;;;18.27;3.70;;;13.60;99.90;;;;;;4731037;30;20081;-82
2021/01/23 01:08:27;;;;;;;14.80;3.35;;;13.60;99.90;;;;;;4730510;30;20061;-81
2021/01/23 01:10:54;;;;;;;9.70;2.83;;;13.60;99.90;;;;;;4718054;30;20041;-82
2021/01/23 01:13:22;;;;;;;12.38;4.18;;;13.60;99.90;;;;;;4730088;30;20076;-82
2021/01/23 01:15:49;;;;;;;9.45;2.30;;;13.60;99.90;;;;;;4731000;30;20107;-81
2021/01/23 01:18:15;;;;;;;17.67;3.80;;;13.60;99.90;;;;;;4730514;30;20104;-82
2021/01/23 01:20:41;;;;;;;8.85;3.30;;;13.50;99.90;;;;;;4733808;30;20033;-81
2021/01/23 01:23:07;;;;;;;10.43;2.97;;;13.60;99.90;;;;;;4737348;30;20064;-79
2021/01/23 01:25:33;;;;;;;14.60;3.80;;;13.60;99.90;;;;;;4731883;30;20071;-82
2021/01/23 01:27:59;;;;;;;14.00;3.42;;;13.60;99.90;;;;;;4731434;30;20040;-80
2021/01/23 01:30:26;;;;;;;12.98;3.05;;;13.60;99.90;;;;;;4732061;30;20036;-82
2021/01/23 01:32:52;;;;;;;10.43;2.58;;;13.60;99.90;;;;;;4727942;30;20169;-81
2021/01/23 01:35:18;;;;;;;11.30;2.88;;;13.60;99.90;;;;;;4714400;30;20033;-81
2021/01/23 01:37:44;;;;;;;6.20;1.75;;;13.70;99.90;;;;;;4714129;30;20033;-81
2021/01/23 01:40:11;;;;;;;9.63;2.85;;;13.70;99.90;;;;;;4727680;30;20637;-79
2021/01/23 01:42:37;;;;;;;10.18;3.20;;;13.70;99.90;;;;;;4742269;30;20052;-80
2021/01/23 01:45:05;;;;;;;11.85;2.90;;;13.60;99.90;;;;;;4729977;30;20551;-81
2021/01/23 01:47:33;;;;;;;10.75;3.20;;;13.70;99.90;;;;;;4731397;30;20071;-80
2021/01/23 01:49:59;;;;;;;17.08;3.28;;;13.70;99.90;;;;;;4730429;30;20036;-80
2021/01/23 01:52:25;;;;;;;13.02;3.22;;;13.70;99.90;;;;;;4744703;30;20047;-79
2021/01/23 01:54:51;;;;;;;6.65;2.60;;;13.70;99.90;;;;;;4723686;30;20615;-82
2021/01/23 01:57:21;;;;;;;14.60;3.03;;;13.70;99.90;;;;;;4725699;30;20098;-83
2021/01/23 01:59:48;;;;;;;11.63;2.67;;;13.70;99.90;;;;;;4730635;30;20047;-82
2021/01/23 02:02:40;;;;;;;13.35;3.38;;;13.70;99.90;;;;;;4731003;30;20062;-82
2021/01/23 02:05:35;;;;;;;12.35;3.20;;;13.70;99.90;;;;;;4730285;30;20033;-81
2021/01/23 02:08:19;;;;;;;12.38;3.03;;;13.60;99.90;;;;;;4730097;30;20061;-82
2021/01/23 02:10:56;;;;;;;13.48;2.53;;;13.60;99.90;;;;;;4730230;30;20043;-82
2021/01/23 02:13:28;;;;;;;11.70;2.40;;;13.60;99.90;;;;;;4733331;30;20151;-81
2021/01/23 02:16:20;;;;;;;22.33;3.58;;;13.60;99.90;;;;;;4730341;30;20064;-82
2021/01/23 02:19:10;;;;;;;14.13;3.17;;;13.60;99.90;;;;;;4731714;30;20204;-82
2021/01/23 02:21:39;;;;;;;11.13;3.97;;;13.60;99.90;;;;;;4731792;30;20037;-79
2021/01/23 02:24:07;;;;;;;14.43;3.17;;;13.60;99.90;;;;;;4731548;30;20055;-82
2021/01/23 02:26:51;;;;;;;13.02;3.53;;;13.60;99.90;;;;;;4733849;30;20036;-82
2021/01/23 02:29:20;;;;;;;14.23;3.55;;;13.50;99.90;;;;;;4733611;30;20068;-81
2021/01/23 02:31:57;;;;;;;18.90;3.85;;;13.50;99.90;;;;;;4733619;30;20040;-82
2021/01/23 02:34:25;;;;;;;9.45;2.40;;;13.60;99.90;;;;;;4740397;30;20051;-80
2021/01/23 02:36:54;;;;;;;10.88;3.80;;;13.60;99.90;;;;;;4740664;30;20459;-82
2021/01/23 02:39:20;;;;;;;13.57;2.90;;;13.60;99.90;;;;;;4733231;30;20511;-82
2021/01/23 02:41:48;;;;;;;12.73;3.28;;;13.60;99.90;;;;;;4733289;30;20072;-81
2021/01/23 02:44:14;;;;;;;16.38;3.10;;;13.60;99.90;;;;;;4733963;30;20153;-81
2021/01/23 02:46:40;;;;;;;12.48;2.92;;;13.60;99.90;;;;;;4740576;30;20086;-79
2021/01/23 02:49:07;;;;;;;8.73;2.95;;;13.70;99.90;;;;;;4740654;30;20125;-78
2021/01/23 02:51:44;;;;;;;10.20;4.10;;;13.70;99.90;;;;;;4733262;30;20493;-82
2021/01/23 02:54:40;;;;;;;25.75;4.85;;;13.60;99.90;;;;;;4734417;30;20526;-80
2021/01/23 02:57:09;;;;;;;11.93;2.45;;;13.60;99.90;;;;;;4725535;30;20136;-79
2021/01/23 02:59:39;;;;;;;19.23;3.80;;;13.60;99.90;;;;;;4734330;30;20495;-82
2021/01/23 03:02:10;;;;;;;14.20;3.85;;;13.60;99.90;;;;;;4733101;30;20044;-82
2021/01/23 03:04:39;;;;;;;22.85;4.13;;;13.60;99.90;;;;;;4735921;30;20028;-82
2021/01/23 03:07:05;;;;;;;12.73;3.55;;;13.60;99.90;;;;;;4733918;30;20048;-82
2021/01/23 03:09:31;;;;;;;10.90;2.88;;;13.60;99.90;;;;;;4718309;30;20083;-82
2021/01/23 03:11:58;;;;;;;17.08;2.97;;;13.60;99.90;;;;;;4733931;30;20040;-82
2021/01/23 03:14:24;;;;;;;11.73;3.13;;;13.60;99.90;;;;;;4733889;30;20119;-82
2021/01/23 03:16:56;;;;;;;11.50;3.08;;;13.60;99.90;;;;;;4732509;30;20107;-81
2021/01/23 03:19:23;;;;;;;16.83;3.50;;;13.60;99.90;;;;;;4733925;30;20032;-80
2021/01/23 03:21:50;;;;;;;19.65;3.15;;;13.60;99.90;;;;;;4734294;30;20037;-82
2021/01/23 03:24:17;;;;;;;20.05;4.40;;;13.60;99.90;;;;;;4732707;30;20051;-81
2021/01/23 03:26:44;;;;;;;12.60;3.00;;;13.60;99.90;;;;;;4721194;30;20040;-82
2021/01/23 03:29:11;;;;;;;12.65;3.53;;;13.60;99.90;;;;;;4733900;30;20171;-82
2021/01/23 03:31:37;;;;;;;12.48;3.42;;;13.60;99.90;;;;;;4733882;30;20040;-82
2021/01/23 03:34:03;;;;;;;15.10;3.72;;;13.60;99.90;;;;;;4732389;30;20052;-82
2021/01/23 03:36:29;;;;;;;12.15;2.45;;;13.60;99.90;;;;;;4704948;30;20037;-79
2021/01/23 03:38:56;;;;;;;21.42;4.60;;;13.60;99.90;;;;;;4732872;30;20119;-82
2021/01/23 03:41:23;;;;;;;15.90;3.58;;;13.70;99.90;;;;;;4732377;30;20036;-82
2021/01/23 03:43:49;;;;;;;25.33;4.20;;;13.70;99.90;;;;;;4732125;30;20037;-83
2021/01/23 03:46:15;;;;;;;11.82;3.00;;;13.70;99.90;;;;;;4727787;30;20037;-82
2021/01/23 03:48:41;;;;;;;16.73;3.97;;;13.70;99.90;;;;;;4705745;30;20056;-81
2021/01/23 03:51:08;;;;;;;17.25;4.22;;;13.70;99.90;;;;;;4722785;30;20044;-82
2021/01/23 03:53:34;;;;;;;14.23;4.22;;;13.70;99.90;;;;;;4716191;30;20120;-82
2021/01/23 03:56:00;;;;;;;15.88;2.90;;;13.70;99.90;;;;;;4729405;30;20088;-82
2021/01/23 03:58:26;;;;;;;18.48;3.00;;;13.70;99.90;;;;;;4714686;30;20052;-81
2021/01/23 04:00:52;;;;;;;10.60;2.63;;;13.70;99.90;;;;;;4714495;30;20055;-81
2021/01/23 04:03:18;;;;;;;11.27;4.00;;;13.60;99.90;;;;;;4715486;30;20483;-82
2021/01/23 04:05:45;;;;;;;13.07;4.68;;;13.70;99.90;;;;;;4729622;30;20032;-81
2021/01/23 04:08:11;;;;;;;18.73;4.15;;;13.60;99.90;;;;;;4733125;30;20461;-81
2021/01/23 04:10:37;;;;;;;10.90;2.95;;;13.60;99.90;;;;;;4733222;30;20033;-81
2021/01/23 04:13:04;;;;;;;13.48;4.35;;;13.60;99.90;;;;;;4732889;30;20094;-81
2021/01/23 04:15:30;;;;;;;14.25;4.15;;;13.60;99.90;;;;;;4732032;30;20372;-81
2021/01/23 04:17:56;;;;;;;22.42;3.35;;;13.60;99.90;;;;;;4731197;30;20061;-82
2021/01/23 04:20:22;;;;;;;16.83;4.00;;;13.60;99.90;;;;;;4731735;30;20060;-82
2021/01/23 04:22:48;;;;;;;14.52;3.17;;;13.60;99.90;;;;;;4732829;30;20089;-81
2021/01/23 04:25:15;;;;;;;14.75;3.78;;;13.60;99.90;;;;;;4732644;30;20028;-80
2021/01/23 04:27:42;;;;;;;9.20;3.03;;;13.70;99.90;;;;;;4739057;30;20514;-82
2021/01/23 04:30:11;;;;;;;11.48;3.30;;;13.60;99.90;;;;;;4731419;30;20431;-82
2021/01/23 04:32:38;;;;;;;17.83;3.83;;;13.60;99.90;;;;;;4732738;30;20495;-82
2021/01/23 04:35:06;;;;;;;24.58;3.47;;;13.70;99.90;;;;;;4731881;30;20517;-81
2021/01/23 04:37:32;;;;;;;16.35;3.97;;;13.60;99.90;;;;;;4723942;30;20033;-82
2021/01/23 04:39:58;;;;;;;19.05;3.95;;;13.60;99.90;;;;;;4731702;30;20662;-82
2021/01/23 04:42:24;;;;;;;13.57;2.40;;;13.60;99.90;;;;;;4732077;30;20041;-81
2021/01/23 04:44:50;;;;;;;16.35;3.05;;;13.70;99.90;;;;;;4714740;30;20379;-82
2021/01/23 04:47:16;;;;;;;10.57;3.50;;;13.70;99.90;;;;;;4728607;30;20439;-82
2021/01/23 04:49:42;;;;;;;10.85;3.53;;;13.70;99.90;;;;;;4715853;30;20037;-82
2021/01/23 04:52:08;;;;;;;26.10;3.22;;;13.70;99.90;;;;;;4715017;30;20040;-79
2021/01/23 04:54:35;;;;;;;8.05;2.38;;;13.70;99.90;;;;;;4713877;30;20045;-82
2021/01/23 04:57:02;;;;;;;15.60;3.78;;;13.70;99.90;;;;;;4723171;30;20033;-83
2021/01/23 04:59:28;;;;;;;10.65;2.72;;;13.70;99.90;;;;;;4732704;30;20811;-82
2021/01/23 05:02:13;;;;;;;16.00;2.85;;;13.70;99.90;;;;;;4732172;30;20521;-81
2021/01/23 05:04:58;;;;;;;15.73;3.03;;;13.70;99.90;;;;;;4740136;30;20045;-82
2021/01/23 05:07:29;;;;;;;9.38;3.33;;;13.70;99.90;;;;;;4731133;30;20447;-79
2021/01/23 05:10:11;;;;;;;12.18;2.40;;;13.70;99.90;;;;;;4730135;30;20495;-81
2021/01/23 05:12:45;;;;;;;8.65;2.70;;;13.70;99.90;;;;;;4745995;30;20416;-81
2021/01/23 05:15:32;;;;;;;11.43;4.35;;;13.70;99.90;;;;;;4748674;30;20064;-81
2021/01/23 05:18:00;;;;;;;20.90;3.72;;;13.70;99.90;;;;;;4740137;30;20378;-79
2021/01/23 05:20:48;;;;;;;13.70;2.80;;;13.70;99.90;;;;;;4731719;30;20032;-81
2021/01/23 05:23:23;;;;;;;13.50;2.75;;;13.70;99.90;;;;;;4730748;30;20096;-82
2021/01/23 05:25:51;;;;;;;14.98;3.35;;;13.80;99.90;;;;;;4731887;30;20033;-82
2021/01/23 05:28:37;;;;;;;12.50;3.63;;;13.80;99.90;;;;;;4733554;30;20420;-81
2021/01/23 05:31:07;;;;;;;10.15;2.45;;;13.80;99.90;;;;;;4731703;30;20036;-81
2021/01/23 05:33:35;;;;;;;9.55;2.78;;;13.80;99.90;;;;;;4716126;30;20053;-81
2021/01/23 05:36:07;;;;;;;11.20;3.22;;;13.80;99.90;;;;;;4730874;30;20056;-82
2021/01/23 05:38:34;;;;;;;13.70;3.30;;;13.80;99.90;;;;;;4734098;30;20025;-82
2021/01/23 05:41:04;;;;;;;16.02;3.42;;;13.80;99.90;;;;;;4726337;30;20049;-82
2021/01/23 05:43:34;;;;;;;10.82;2.88;;;13.80;99.90;;;;;;4716407;30;20463;-82
2021/01/23 05:46:04;;;;;;;6.88;2.85;;;13.80;99.90;;;;;;4730826;30;20048;-82
2021/01/23 05:48:30;;;;;;;16.42;4.05;;;13.80;99.90;;;;;;4731588;30;20040;-83
2021/01/23 05:50:57;;;;;;;15.60;3.58;;;13.90;99.90;;;;;;4730860;30;20049;-80
2021/01/23 05:53:23;;;;;;;9.93;2.78;;;13.90;99.90;;;;;;4714620;30;20114;-81
2021/01/23 05:55:49;;;;;;;18.05;4.22;;;13.90;99.90;;;;;;4714470;30;20312;-80
2021/01/23 05:58:15;;;;;;;11.30;2.30;;;13.90;99.90;;;;;;4714774;30;20488;-82
2021/01/23 06:00:42;;;;;;;15.30;3.25;;;13.90;99.90;;;;;;4736210;30;20029;-81
2021/01/23 06:03:10;;;;;;;11.70;3.15;;;13.90;99.90;;;;;;4717802;30;20037;-82
2021/01/23 06:05:37;;;;;;;17.08;3.92;;;13.90;99.90;;;;;;4733828;30;20391;-82
2021/01/23 06:08:03;;;;;;;9.07;2.58;;;13.90;99.90;;;;;;4733852;30;20477;-82
2021/01/23 06:10:37;;;;;;;15.43;3.60;;;13.90;99.90;;;;;;4741192;30;20032;-83
2021/01/23 06:13:04;;;;;;;16.95;4.03;;;13.90;99.90;;;;;;4744380;30;20063;-83
2021/01/23 06:15:33;;;;;;;11.23;2.83;;;13.80;99.90;;;;;;4752888;30;20069;-83
2021/01/23 06:17:59;;;;;;;12.05;3.33;;;13.90;99.90;;;;;;4761301;30;20032;-81
2021/01/23 06:20:40;;;;;;;12.63;4.15;;;13.90;99.90;;;;;;4745214;30;20975;-81
2021/01/23 06:23:16;;;;;;;13.55;2.67;;;13.90;99.90;;;;;;4734095;30;20063;-82
2021/01/23 06:25:51;;;;;;;8.52;2.55;;;13.90;99.90;;;;;;4726951;30;20041;-82
2021/01/23 06:28:21;;;;;;;11.50;2.63;;;13.90;99.90;;;;;;4717063;30;20041;-83
2021/01/23 06:30:51;;;;;;;12.23;3.63;;;13.90;99.90;;;;;;4732364;30;20455;-83
2021/01/23 06:33:23;;;;;;;9.18;2.78;;;13.90;99.90;;;;;;4734353;30;20045;-82
2021/01/23 06:36:01;;;;;;;12.77;2.45;;;13.90;99.90;;;;;;4733275;30;20047;-82
2021/01/23 06:38:31;;;;;;;12.55;3.67;;;13.90;99.90;;;;;;4734686;30;20127;-83
2021/01/23 06:41:26;;;;;;;9.85;2.85;;;13.90;99.90;;;;;;4733250;30;20024;-83
2021/01/23 06:44:07;;;;;;;18.42;2.83;;;13.90;99.90;;;;;;4730113;30;20459;-82
2021/01/23 06:46:41;;;;;;;13.25;2.80;;;14.00;99.90;;;;;;4730948;30;20033;-83
2021/01/23 06:49:10;;;;;;;11.18;2.80;;;14.00;99.90;;;;;;4727917;30;20051;-82
2021/01/23 06:51:38;;;;;;;11.77;3.08;;;14.00;99.90;;;;;;4730390;30;20029;-83
2021/01/23 06:54:21;;;;;;;16.60;3.10;;;14.00;99.90;;;;;;4730419;30;20110;-83
2021/01/23 06:56:53;;;;;;;12.90;2.85;;;14.00;99.90;;;;;;4728466;30;20056;-82
2021/01/23 06:59:33;;;;;;;12.52;2.38;;;14.00;99.90;;;;;;4731847;30;20037;-83
2021/01/23 07:02:07;;;;;;;10.32;2.60;;;14.10;99.90;;;;;;4729737;30;20029;-83
2021/01/23 07:04:48;;;;;;;20.35;4.63;;;14.00;99.90;;;;;;4724958;30;20047;-83
2021/01/23 07:07:16;;;;;;;12.80;3.13;;;14.10;99.90;;;;;;4737425;30;20463;-82
2021/01/23 07:09:48;;;;;;;8.93;2.47;;;14.10;99.90;;;;;;4729675;30;20040;-82
2021/01/23 07:12:43;;;;;;;21.38;3.63;;;14.10;99.90;;;;;;4728437;30;20438;-81
2021/01/23 07:15:10;;;;;;;10.55;3.63;;;14.10;99.90;;;;;;4730648;30;20055;-83
2021/01/23 07:17:37;;;;;;;10.32;3.05;;;14.10;99.90;;;;;;4730697;30;20390;-83
2021/01/23 07:20:11;;;;;;;12.88;3.95;;;14.10;99.90;;;;;;4717207;30;20110;-83
2021/01/23 07:22:37;;;;;;;17.35;3.60;;;14.10;99.90;;;;;;4728245;30;20021;-80
2021/01/23 07:25:13;;;;;;;19.67;3.42;;;14.20;99.90;;;;;;4732150;30;20041;-83
2021/01/23 07:27:41;;;;;;;6.28;2.78;;;14.20;99.90;;;;;;4731532;30;20123;-83
2021/01/23 07:30:11;;;;;;;16.17;3.22;;;14.20;99.90;;;;;;4732276;30;20155;-85
2021/01/23 07:32:38;;;;;;;8.32;2.90;;;14.20;99.90;;;;;;4719013;30;20040;-82
2021/01/23 07:35:05;;;;;;;14.48;3.55;;;14.20;99.90;;;;;;4738755;30;20392;-82
2021/01/23 07:37:52;;;;;;;19.38;4.80;;;14.20;99.90;;;;;;4731839;30;20064;-83
2021/01/23 07:40:30;;;;;;;14.07;3.90;;;14.20;99.90;;;;;;4738734;30;20037;-83
2021/01/23 07:43:02;;;;;;;15.13;3.20;;;14.30;99.90;;;;;;4730744;30;20064;-82
2021/01/23 07:45:28;;;;;;;11.70;2.65;;;14.20;99.90;;;;;;4715818;30;20063;-83
2021/01/23 07:48:02;;;;;;;25.50;3.75;;;14.20;99.90;;;;;;4731213;30;20039;-83
2021/01/23 07:50:42;;;;;;;17.63;3.35;;;14.30;99.90;;;;;;4732079;30;20044;-82
2021/01/23 07:53:23;;;;;;;18.63;4.72;;;14.30;99.90;;;;;;4731980;30;20044;-82
2021/01/23 07:55:50;;;;;;;19.33;5.15;;;14.30;99.90;;;;;;4730078;30;20031;-82
2021/01/23 07:58:16;;;;;;;22.63;3.95;;;14.30;99.90;;;;;;4709352;30;20410;-80
2021/01/23 08:00:45;;;;;;;21.40;4.20;;;14.40;99.90;;;;;;4731784;30;20432;-80
2021/01/23 08:03:11;;;;;;;14.93;3.35;;;14.40;99.90;;;;;;4730982;30;20041;-82
2021/01/23 08:05:57;;;;;;;19.73;4.53;;;14.40;99.90;;;;;;4730008;30;20044;-82
2021/01/23 08:08:31;;;;;;;10.77;3.22;;;14.40;99.90;;;;;;4729024;30;20074;-82
2021/01/23 08:11:01;;;;;;;14.32;3.38;;;14.40;99.90;;;;;;4729016;30;20051;-83
2021/01/23 08:13:32;;;;;;;27.88;4.00;;;14.40;99.90;;;;;;4731625;30;20083;-83
2021/01/23 08:16:09;;;;;;;19.55;4.72;;;14.40;99.90;;;;;;4728671;30;20094;-83
2021/01/23 08:18:36;;;;;;;11.52;2.88;;;14.30;99.90;;;;;;4731066;30;20038;-82
2021/01/23 08:21:03;;;;;;;12.35;3.25;;;14.40;99.90;;;;;;4730621;30;20047;-80
2021/01/23 08:23:33;;;;;;;10.05;2.85;;;14.30;99.90;;;;;;4731376;30;20036;-80
2021/01/23 08:26:00;;;;;;;6.75;1.90;;;14.30;99.90;;;;;;4730238;30;20024;-83
2021/01/23 08:28:42;;;;;;;10.63;2.83;;;14.20;99.90;;;;;;4731368;30;20035;-83
2021/01/23 08:31:18;;;;;;;16.63;2.55;;;14.10;99.90;;;;;;4729523;30;20041;-83
2021/01/23 08:33:48;;;;;;;10.18;4.18;;;14.10;99.90;;;;;;4730986;30;20043;-82
2021/01/23 08:36:15;;;;;;;20.88;5.05;;;14.10;99.90;;;;;;4726570;30;20111;-82
2021/01/23 08:38:41;;;;;;;9.38;2.97;;;14.00;99.90;;;;;;4731413;30;20040;-83
2021/01/23 08:41:08;;;;;;;12.52;2.92;;;14.00;99.90;;;;;;4722048;30;20063;-83
2021/01/23 08:43:34;;;;;;;13.60;3.50;;;14.00;99.90;;;;;;4731567;30;20028;-82
2021/01/23 08:46:00;;;;;;;10.05;2.97;;;14.00;99.90;;;;;;4732828;30;20049;-82
2021/01/23 08:48:26;;;;;;;10.18;3.47;;;14.00;99.90;;;;;;4729604;30;20024;-83
2021/01/23 08:50:52;;;;;;;14.68;3.78;;;14.00;99.90;;;;;;4729595;30;20043;-80
2021/01/23 08:53:18;;;;;;;14.52;4.47;;;14.00;99.90;;;;;;4730873;30;20148;-83
2021/01/23 08:55:44;;;;;;;22.48;4.15;;;14.10;99.90;;;;;;4727453;30;20033;-83
2021/01/23 08:58:11;;;;;;;21.13;3.42;;;14.20;99.90;;;;;;4731505;30;20037;-83
2021/01/23 09:00:37;;;;;;;23.63;3.58;;;14.30;99.90;;;;;;4730163;30;20028;-82
2021/01/23 09:03:04;;;;;;;14.00;3.38;;;14.50;99.90;;;;;;4730449;30;20099;-83
2021/01/23 09:05:30;;;;;;;13.88;3.25;;;14.60;99.90;;;;;;4731542;30;20028;-82
2021/01/23 09:07:56;;;;;;;8.85;3.05;;;14.70;99.90;;;;;;4729833;30;20860;-82
2021/01/23 09:10:22;;;;;;;11.27;2.63;;;14.80;99.90;;;;;;4730101;30;20039;-83
2021/01/23 09:12:48;;;;;;;16.25;3.92;;;14.90;99.90;;;;;;4729654;30;20066;-82
2021/01/23 09:15:15;;;;;;;14.90;3.47;;;15.00;99.90;;;;;;4730746;30;20036;-83
2021/01/23 09:17:44;;;;;;;11.48;3.13;;;15.00;99.90;;;;;;4729915;30;20037;-82
2021/01/23 09:20:10;;;;;;;11.63;3.55;;;15.20;99.90;;;;;;4731078;30;20043;-81
2021/01/23 09:22:37;;;;;;;15.05;4.10;;;15.40;99.90;;;;;;4724079;30;20114;-83
2021/01/23 09:25:04;;;;;;;15.27;3.10;;;15.50;99.90;;;;;;4729028;30;20037;-83
2021/01/23 09:27:30;;;;;;;12.93;3.45;;;15.40;99.90;;;;;;4731735;30;20037;-83
2021/01/23 09:29:57;;;;;;;11.93;3.13;;;15.40;99.90;;;;;;4730666;30;20119;-83
2021/01/23 09:32:23;;;;;;;20.83;3.88;;;15.50;99.90;;;;;;4732642;30;20036;-82
2021/01/23 09:34:49;;;;;;;11.43;2.85;;;15.40;99.90;;;;;;4730133;30;20048;-83
2021/01/23 09:37:15;;;;;;;13.20;3.65;;;15.50;99.90;;;;;;4732084;30;20085;-83
2021/01/23 09:39:42;;;;;;;12.52;4.20;;;15.60;99.90;;;;;;4733823;30;20037;-82
2021/01/23 09:42:09;;;;;;;12.20;2.80;;;15.70;99.90;;;;;;4733508;30;20135;-83
2021/01/23 09:44:35;;;;;;;15.68;3.47;;;15.60;99.90;;;;;;4732706;30;20090;-82
2021/01/23 09:47:01;;;;;;;14.70;3.53;;;15.70;99.90;;;;;;4731341;30;20368;-82
2021/01/23 09:49:27;;;;;;;17.90;4.53;;;15.80;99.90;;;;;;4732597;30;20051;-82
2021/01/23 09:51:54;;;;;;;14.10;3.67;;;16.10;99.90;;;;;;4733291;30;20029;-82
2021/01/23 09:54:20;;;;;;;20.73;3.22;;;16.30;99.90;;;;;;4718161;30;20406;-82
2021/01/23 09:56:46;;;;;;;7.72;2.67;;;16.30;99.90;;;;;;4732490;30;20036;-81
2021/01/23 09:59:13;;;;;;;7.88;3.00;;;16.20;99.90;;;;;;4737088;30;20043;-80
2021/01/23 10:01:39;;;;;;;13.48;2.67;;;16.00;99.90;;;;;;4731212;30;20040;-81
2021/01/23 10:04:05;;;;;;;13.52;3.60;;;15.80;99.90;;;;;;4732664;30;20095;-81
2021/01/23 10:06:31;;;;;;;8.63;3.00;;;15.70;99.90;;;;;;4732204;30;20040;-82
2021/01/23 10:08:58;;;;;;;15.40;3.25;;;15.60;99.90;;;;;;4714215;30;20057;-82
2021/01/23 10:11:24;;;;;;;11.80;3.08;;;15.50;99.90;;;;;;4731562;30;20044;-82
2021/01/23 10:13:50;;;;;;;10.30;3.25;;;15.40;99.90;;;;;;4730811;30;20048;-82
2021/01/23 10:16:16;;;;;;;15.50;3.30;;;15.40;99.90;;;;;;4733273;30;20094;-82
2021/01/23 10:18:43;;;;;;;9.52;2.50;;;15.30;99.90;;;;;;4732042;30;20047;-81
2021/01/23 10:21:09;;;;;;;15.50;3.85;;;15.20;99.90;;;;;;4732280;30;20025;-80
2021/01/23 10:23:37;;;;;;;10.80;3.22;;;15.10;99.90;;;;;;4707324;30;20036;-81
2021/01/23 10:26:03;;;;;;;13.10;2.63;;;15.00;99.90;;;;;;4731522;30;20037;-81
2021/01/23 10:28:29;;;;;;;12.70;3.60;;;15.00;99.90;;;;;;4716486;30;20089;-81
2021/01/23 10:30:56;;;;;;;18.13;2.75;;;15.00;99.90;;;;;;4733239;30;20041;-80
2021/01/23 10:33:23;;;;;;;9.60;2.97;;;14.90;99.90;;;;;;4715900;30;20045;-80
2021/01/23 10:35:49;;;;;;;11.32;3.05;;;14.90;99.90;;;;;;4733353;30;20028;-81
2021/01/23 10:38:15;;;;;;;10.55;3.30;;;14.90;99.90;;;;;;4713924;30;20037;-81
2021/01/23 10:40:44;;;;;;;12.48;2.72;;;15.00;99.90;;;;;;4732819;30;20031;-81
2021/01/23 10:43:13;;;;;;;15.38;4.68;;;15.00;99.90;;;;;;4732317;30;20294;-80
2021/01/23 10:45:39;;;;;;;12.50;3.35;;;15.10;99.90;;;;;;4730144;30;20041;-81
2021/01/23 10:48:09;;;;;;;9.52;2.90;;;15.20;99.90;;;;;;4730504;30;20298;-81
2021/01/23 10:50:36;;;;;;;8.82;3.05;;;15.20;99.90;;;;;;4717465;30;20043;-81
2021/01/23 10:53:03;;;;;;;9.77;2.90;;;15.20;99.90;;;;;;4729880;30;20406;-81
2021/01/23 10:55:29;;;;;;;15.55;3.63;;;15.30;99.90;;;;;;4733628;30;20028;-81
2021/01/23 10:57:55;;;;;;;9.50;2.25;;;15.40;99.90;;;;;;4716484;30;20040;-81
2021/01/23 11:00:22;;;;;;;12.60;4.07;;;15.30;99.90;;;;;;4714108;30;20082;-81
2021/01/23 11:02:48;;;;;;;14.13;2.95;;;15.40;99.90;;;;;;4730850;30;20041;-81
2021/01/23 11:05:14;;;;;;;23.10;2.58;;;15.40;99.90;;;;;;4716835;30;20615;-81
2021/01/23 11:07:40;;;;;;;11.68;2.92;;;15.40;99.90;;;;;;4716833;30;20064;-81
2021/01/23 11:10:07;;;;;;;9.63;2.83;;;15.40;99.90;;;;;;4730767;30;20053;-80
2021/01/23 11:12:34;;;;;;;15.68;3.35;;;15.40;99.90;;;;;;4730027;30;20053;-81
2021/01/23 11:15:00;;;;;;;11.13;2.95;;;15.30;99.90;;;;;;4717201;30;20040;-81
2021/01/23 11:17:26;;;;;;;8.30;2.35;;;15.30;99.90;;;;;;4730984;30;20041;-81
2021/01/23 11:19:52;;;;;;;10.93;3.78;;;15.30;99.90;;;;;;4731590;30;20487;-81
2021/01/23 11:22:18;;;;;;;10.02;2.50;;;15.40;99.90;;;;;;4732195;30;20032;-80
2021/01/23 11:24:44;;;;;;;8.13;2.45;;;15.30;99.90;;;;;;4732148;30;20072;-81
2021/01/23 11:27:10;;;;;;;13.93;2.63;;;15.30;99.90;;;;;;4716163;30;20110;-81
2021/01/23 11:29:38;;;;;;;6.82;2.40;;;15.30;99.90;;;;;;4727971;30;20040;-81
2021/01/23 11:32:05;;;;;;;10.15;3.08;;;15.30;99.90;;;;;;4715778;30;20048;-81
2021/01/23 11:34:31;;;;;;;8.82;3.05;;;15.20;99.90;;;;;;4714036;30;20188;-81
2021/01/23 11:36:57;;;;;;;10.73;2.83;;;15.20;99.90;;;;;;4715780;30;20071;-80
2021/01/23 11:39:23;;;;;;;9.35;2.63;;;15.20;99.90;;;;;;4729870;30;20028;-81
2021/01/23 11:41:49;;;;;;;9.25;2.97;;;15.20;99.90;;;;;;4729371;30;20047;-81
2021/01/23 11:44:16;;;;;;;10.65;2.72;;;15.10;99.90;;;;;;4732235;30;20115;-80
2021/01/23 11:46:42;;;;;;;11.88;2.83;;;15.20;99.90;;;;;;4715968;30;20044;-80
2021/01/23 11:49:09;;;;;;;12.02;3.28;;;15.20;99.90;;;;;;4730632;30;20107;-80
2021/01/23 11:51:35;;;;;;;11.85;2.80;;;15.20;99.90;;;;;;4715595;30;20049;-80
2021/01/23 11:54:02;;;;;;;9.20;2.47;;;15.10;99.90;;;;;;4710398;30;20156;-81
2021/01/23 11:56:28;;;;;;;7.22;2.78;;;15.10;99.90;;;;;;4705884;30;20514;-80
2021/01/23 11:58:54;;;;;;;17.52;3.65;;;15.10;99.90;;;;;;4731278;30;20040;-80
2021/01/23 12:01:21;;;;;;;9.15;2.60;;;15.10;99.90;;;;;;4729960;30;20184;-81
2021/01/23 12:03:47;;;;;;;9.75;2.35;;;15.10;99.90;;;;;;4712357;30;20495;-80
2021/01/23 12:06:13;;;;;;;10.43;3.22;;;15.10;99.90;;;;;;4715629;30;20036;-81
2021/01/23 12:08:39;;;;;;;8.02;2.13;;;15.00;99.90;;;;;;4729224;30;20099;-80
2021/01/23 12:11:05;;;;;;;11.45;3.33;;;15.00;99.90;;;;;;4726915;30;20040;-81
2021/01/23 12:13:32;;;;;;;5.03;3.00;;;14.90;99.90;;;;;;4731255;30;20045;-80
2021/01/23 12:15:58;;;;;;;6.13;2.00;;;14.80;99.90;;;;;;4727220;30;20035;-81
2021/01/23 12:18:24;;;;;;;8.40;2.72;;;14.70;99.90;;;;;;4731007;30;20479;-79
2021/01/23 12:20:51;;;;;;;2.33;1.25;;;14.60;99.90;;;;;;4727276;30;20033;-80
2021/01/23 12:23:17;;;;;;;5.13;2.90;;;14.50;99.90;;;;;;4728748;30;20064;-80
2021/01/23 12:25:43;;;;;;;3.80;1.35;;;14.40;99.90;;;;;;4727976;30;20041;-80
2021/01/23 12:28:09;;;;;;;3.78;1.30;;;14.30;99.90;;;;;;4710264;30;20033;-80
2021/01/23 12:30:36;;;;;;;5.65;1.55;;;14.20;99.90;;;;;;4714189;30;20029;-80
2021/01/23 12:33:02;;;;;;;4.15;1.30;;;14.10;99.90;;;;;;4730928;30;20593;-79
2021/01/23 12:35:29;;;;;;;4.47;1.02;;;14.00;99.90;;;;;;4727786;30;20043;-80
2021/01/23 12:37:58;;;;;;;3.33;1.10;;;13.90;99.90;;;;;;4729636;30;20037;-80
2021/01/23 12:40:25;;;;;;;3.40;1.05;;;13.80;99.90;;;;;;4732563;30;20044;-80
2021/01/23 12:42:52;;;;;;;2.53;0.98;;;13.70;99.90;;;;;;4729139;30;20028;-80
2021/01/23 12:45:18;;;;;;;3.25;1.10;;;13.70;99.90;;;;;;4729530;30;20110;-80
2021/01/23 12:47:45;;;;;;;3.88;1.33;;;13.60;99.90;;;;;;4713641;30;20446;-79